Details From GCHI - Hierro
To LXGB - Gibraltar
Flight Number -
Tags Generated
Created
Modified
Stats Distance 811 nm / 1,502 km
Max Altitude 0 ft / 0 m
Waypoints 3
Social Downloads 2
Likes 0
Share VATSIM

Download

Looking for another format? Having issues loading an existing format? Contact us
Advertisement - Login to hide

Notes

Generated

Route

GCHI BARPA LXGB

ID Type Via Altitude Latitude Longitude Leg Dist Tot Dist Heading (true) Name
O GCHI APT - 0 ft / 0 m 27.81985˚ -17.88997˚ - 0 nm - -
BARPA FIX - 0 ft / 0 m 35.83333˚ -5.66667˚ 786 nm 786 nm 49° / 56° -
O LXGB APT - 0 ft / 0 m 36.15080˚ -5.35977˚ 24 nm 810 nm 38° / 38° -

Altitude Profile

Advertisement - Login to hide

Weather


0- 5 10 15 20 25 30 35+ Temperature / ° C

Clouds and Precipitation
Forecast for 2017-12-17 18:00 UTC. Updated an hour ago

Ground ~20,000 ft ~40,000 ft Winds

GCHI

Details ICAO GCHI (VDE)
Name Hierro
Region Canary Islands
Timezone Atlantic/Canary (UTC+0.0)
Stats Elevation 337 ft / 103 m (AMSL)
Location 27.814848° -17.887052°
Runways 1
Magnetic Variation 5.628° W

METAR

GCHI 171600Z 04015KT 360V070 9999 FEW030 20/14 Q1022

Decode

TAF

TAF GCHI 171400Z 1715/1815 04015KT 9999 FEW030 TX23/1814Z TN20/1806Z PROB30 TEMPO 1715/1718 RA

Decode

Departure Runways

ID Width Length Bearing (true) Bearing (mag) Surface Threshold Offset Overrun Length
16 98 ft / 30 m 4,110 ft / 1,253 m 152.71° 158.34° Asphalt 0 ft / 0 m 112 ft / 34 m
34 98 ft / 30 m 4,110 ft / 1,253 m 332.71° 338.34° Asphalt 0 ft / 0 m 105 ft / 32 m

LXGB

Details ICAO LXGB (GIB)
Name Gibraltar
Region Gibralter
Timezone Europe/Gibraltar (UTC+1.0)
Stats Elevation 15 ft / 5 m (AMSL)
Location 36.151209° -5.349664°
Runways 1
Magnetic Variation 1.122° W

METAR

LXGB 171550Z 09014KT 9999 FEW030 16/06 Q1027 NOSIG

Decode

TAF

Not found

Destination Runways

ID Width Length Bearing (true) Bearing (mag) Surface Threshold Offset Overrun Length
27 151 ft / 46 m 5,992 ft / 1,826 m 267.56° 268.68° Asphalt 367 ft / 112 m 89 ft / 27 m
9 151 ft / 46 m 5,992 ft / 1,826 m 87.54° 88.66° Asphalt 299 ft / 91 m 52 ft / 16 m

Popular Alternatives